sensor_id;sensor_type;location;lat;lon;timestamp;temperature;humidity
3051;DHT22;1535;51.098;6.414;2023-10-19T00:00:53;11.20;99.90
3051;DHT22;1535;51.098;6.414;2023-10-19T00:03:21;11.30;99.90
3051;DHT22;1535;51.098;6.414;2023-10-19T00:05:49;11.30;99.90
3051;DHT22;1535;51.098;6.414;2023-10-19T00:08:16;11.30;99.90
3051;DHT22;1535;51.098;6.414;2023-10-19T00:10:46;11.30;99.90
3051;DHT22;1535;51.098;6.414;2023-10-19T00:13:15;11.40;99.90
3051;DHT22;1535;51.098;6.414;2023-10-19T00:15:46;11.40;99.90
3051;DHT22;1535;51.098;6.414;2023-10-19T00:18:18;11.40;99.90
3051;DHT22;1535;51.098;6.414;2023-10-19T00:20:50;11.40;99.90
3051;DHT22;1535;51.098;6.414;2023-10-19T00:23:19;11.50;99.90
3051;DHT22;1535;51.098;6.414;2023-10-19T00:25:50;11.40;99.90
3051;DHT22;1535;51.098;6.414;2023-10-19T00:28:17;11.50;99.90
3051;DHT22;1535;51.098;6.414;2023-10-19T00:30:45;11.50;99.90
3051;DHT22;1535;51.098;6.414;2023-10-19T00:33:15;11.50;99.90
3051;DHT22;1535;51.098;6.414;2023-10-19T00:35:46;11.60;99.90
3051;DHT22;1535;51.098;6.414;2023-10-19T00:38:26;11.60;99.90
3051;DHT22;1535;51.098;6.414;2023-10-19T00:41:07;11.60;99.90
3051;DHT22;1535;51.098;6.414;2023-10-19T00:43:40;11.60;99.90
3051;DHT22;1535;51.098;6.414;2023-10-19T00:46:12;11.60;99.90
3051;DHT22;1535;51.098;6.414;2023-10-19T00:48:48;11.60;99.90
3051;DHT22;1535;51.098;6.414;2023-10-19T00:51:18;11.70;99.90
3051;DHT22;1535;51.098;6.414;2023-10-19T00:54:09;11.50;99.90
3051;DHT22;1535;51.098;6.414;2023-10-19T00:56:42;11.40;99.90
3051;DHT22;1535;51.098;6.414;2023-10-19T00:59:12;11.40;99.90
3051;DHT22;1535;51.098;6.414;2023-10-19T01:01:42;11.40;99.90
3051;DHT22;1535;51.098;6.414;2023-10-19T01:04:14;11.50;99.90
3051;DHT22;1535;51.098;6.414;2023-10-19T01:06:45;11.50;99.90
3051;DHT22;1535;51.098;6.414;2023-10-19T01:09:26;11.50;99.90
3051;DHT22;1535;51.098;6.414;2023-10-19T01:11:53;11.60;99.90
3051;DHT22;1535;51.098;6.414;2023-10-19T01:14:21;11.50;99.90
3051;DHT22;1535;51.098;6.414;2023-10-19T01:16:50;11.60;99.90
3051;DHT22;1535;51.098;6.414;2023-10-19T01:19:17;11.60;99.90
3051;DHT22;1535;51.098;6.414;2023-10-19T01:21:46;11.60;99.90
3051;DHT22;1535;51.098;6.414;2023-10-19T01:24:19;11.70;99.90
3051;DHT22;1535;51.098;6.414;2023-10-19T01:26:52;11.70;99.90
3051;DHT22;1535;51.098;6.414;2023-10-19T01:29:20;11.80;99.90
3051;DHT22;1535;51.098;6.414;2023-10-19T01:31:52;11.80;99.90
3051;DHT22;1535;51.098;6.414;2023-10-19T01:34:22;11.90;99.90
3051;DHT22;1535;51.098;6.414;2023-10-19T01:36:52;11.90;99.90
3051;DHT22;1535;51.098;6.414;2023-10-19T01:39:22;11.90;99.90
3051;DHT22;1535;51.098;6.414;2023-10-19T01:41:48;12.00;99.90
3051;DHT22;1535;51.098;6.414;2023-10-19T01:44:16;12.00;99.90
3051;DHT22;1535;51.098;6.414;2023-10-19T01:46:42;12.00;99.90
3051;DHT22;1535;51.098;6.414;2023-10-19T01:49:11;12.00;99.90
3051;DHT22;1535;51.098;6.414;2023-10-19T01:51:36;12.10;99.90
3051;DHT22;1535;51.098;6.414;2023-10-19T01:54:05;12.20;99.90
3051;DHT22;1535;51.098;6.414;2023-10-19T01:56:35;12.20;99.90
3051;DHT22;1535;51.098;6.414;2023-10-19T01:59:04;12.30;99.90
3051;DHT22;1535;51.098;6.414;2023-10-19T02:01:31;12.30;99.90
3051;DHT22;1535;51.098;6.414;2023-10-19T02:04:00;12.30;99.90
3051;DHT22;1535;51.098;6.414;2023-10-19T02:06:27;12.30;99.90
3051;DHT22;1535;51.098;6.414;2023-10-19T02:09:03;12.40;99.90
3051;DHT22;1535;51.098;6.414;2023-10-19T02:11:36;12.40;99.90
3051;DHT22;1535;51.098;6.414;2023-10-19T02:14:07;12.40;99.90
3051;DHT22;1535;51.098;6.414;2023-10-19T02:16:39;12.50;99.90
3051;DHT22;1535;51.098;6.414;2023-10-19T02:19:06;12.50;99.90
3051;DHT22;1535;51.098;6.414;2023-10-19T02:21:33;12.60;99.90
3051;DHT22;1535;51.098;6.414;2023-10-19T02:24:05;12.60;99.90
3051;DHT22;1535;51.098;6.414;2023-10-19T02:26:32;12.60;99.90
3051;DHT22;1535;51.098;6.414;2023-10-19T02:29:01;12.60;99.90
3051;DHT22;1535;51.098;6.414;2023-10-19T02:31:33;12.60;99.90
3051;DHT22;1535;51.098;6.414;2023-10-19T02:34:00;12.70;99.90
3051;DHT22;1535;51.098;6.414;2023-10-19T02:36:26;12.80;99.90
3051;DHT22;1535;51.098;6.414;2023-10-19T02:38:54;12.80;99.90
3051;DHT22;1535;51.098;6.414;2023-10-19T02:41:20;12.80;99.90
3051;DHT22;1535;51.098;6.414;2023-10-19T02:43:47;12.80;99.90
3051;DHT22;1535;51.098;6.414;2023-10-19T02:46:18;12.90;99.90
3051;DHT22;1535;51.098;6.414;2023-10-19T02:48:47;12.80;99.90
3051;DHT22;1535;51.098;6.414;2023-10-19T02:51:15;12.90;99.90
3051;DHT22;1535;51.098;6.414;2023-10-19T02:53:44;12.90;99.90
3051;DHT22;1535;51.098;6.414;2023-10-19T02:56:13;12.90;99.90
3051;DHT22;1535;51.098;6.414;2023-10-19T02:58:43;13.00;99.90
3051;DHT22;1535;51.098;6.414;2023-10-19T03:01:15;12.90;99.90
3051;DHT22;1535;51.098;6.414;2023-10-19T03:03:44;12.90;99.90
3051;DHT22;1535;51.098;6.414;2023-10-19T03:06:12;13.00;99.90
3051;DHT22;1535;51.098;6.414;2023-10-19T03:08:38;12.90;99.90
3051;DHT22;1535;51.098;6.414;2023-10-19T03:11:05;13.00;99.90
3051;DHT22;1535;51.098;6.414;2023-10-19T03:13:30;12.90;99.90
3051;DHT22;1535;51.098;6.414;2023-10-19T03:15:59;13.00;99.90
3051;DHT22;1535;51.098;6.414;2023-10-19T03:18:26;13.10;99.90
3051;DHT22;1535;51.098;6.414;2023-10-19T03:20:55;13.00;99.90
3051;DHT22;1535;51.098;6.414;2023-10-19T03:23:21;13.10;99.90
3051;DHT22;1535;51.098;6.414;2023-10-19T03:25:54;13.10;99.90
3051;DHT22;1535;51.098;6.414;2023-10-19T03:28:41;13.10;99.90
3051;DHT22;1535;51.098;6.414;2023-10-19T03:31:08;13.10;99.90
3051;DHT22;1535;51.098;6.414;2023-10-19T03:33:39;13.10;99.90
3051;DHT22;1535;51.098;6.414;2023-10-19T03:36:07;13.10;99.90
3051;DHT22;1535;51.098;6.414;2023-10-19T03:38:38;13.20;99.90
3051;DHT22;1535;51.098;6.414;2023-10-19T03:41:06;13.20;99.90
3051;DHT22;1535;51.098;6.414;2023-10-19T03:43:34;13.20;99.90
3051;DHT22;1535;51.098;6.414;2023-10-19T03:46:05;13.20;99.90
3051;DHT22;1535;51.098;6.414;2023-10-19T03:48:40;13.20;99.90
3051;DHT22;1535;51.098;6.414;2023-10-19T03:51:09;13.10;99.90
3051;DHT22;1535;51.098;6.414;2023-10-19T03:53:39;13.20;99.90
3051;DHT22;1535;51.098;6.414;2023-10-19T03:56:09;13.10;99.90
3051;DHT22;1535;51.098;6.414;2023-10-19T03:58:37;13.10;99.90
3051;DHT22;1535;51.098;6.414;2023-10-19T04:01:05;13.10;99.90
3051;DHT22;1535;51.098;6.414;2023-10-19T04:03:32;13.10;99.90
3051;DHT22;1535;51.098;6.414;2023-10-19T04:06:02;13.20;99.90
3051;DHT22;1535;51.098;6.414;2023-10-19T04:08:32;13.20;99.90
3051;DHT22;1535;51.098;6.414;2023-10-19T04:11:02;13.10;99.90
3051;DHT22;1535;51.098;6.414;2023-10-19T04:13:37;13.00;99.90
3051;DHT22;1535;51.098;6.414;2023-10-19T04:16:04;12.90;99.90
3051;DHT22;1535;51.098;6.414;2023-10-19T04:18:34;12.90;99.90
3051;DHT22;1535;51.098;6.414;2023-10-19T04:21:04;12.90;99.90
3051;DHT22;1535;51.098;6.414;2023-10-19T04:23:32;13.00;99.90
3051;DHT22;1535;51.098;6.414;2023-10-19T04:26:01;13.00;99.90
3051;DHT22;1535;51.098;6.414;2023-10-19T04:28:36;13.10;99.90
3051;DHT22;1535;51.098;6.414;2023-10-19T04:31:08;13.10;99.90
3051;DHT22;1535;51.098;6.414;2023-10-19T04:33:39;13.20;99.90
3051;DHT22;1535;51.098;6.414;2023-10-19T04:36:08;13.20;99.90
3051;DHT22;1535;51.098;6.414;2023-10-19T04:38:38;13.20;99.90
3051;DHT22;1535;51.098;6.414;2023-10-19T04:41:06;13.30;99.90
3051;DHT22;1535;51.098;6.414;2023-10-19T04:43:34;13.40;99.90
3051;DHT22;1535;51.098;6.414;2023-10-19T04:46:10;13.40;99.90
3051;DHT22;1535;51.098;6.414;2023-10-19T04:48:38;13.40;99.90
3051;DHT22;1535;51.098;6.414;2023-10-19T04:51:07;13.50;99.90
3051;DHT22;1535;51.098;6.414;2023-10-19T04:53:35;13.50;99.90
3051;DHT22;1535;51.098;6.414;2023-10-19T04:56:06;13.50;99.90
3051;DHT22;1535;51.098;6.414;2023-10-19T04:58:35;13.60;99.90
3051;DHT22;1535;51.098;6.414;2023-10-19T05:01:02;13.60;99.90
3051;DHT22;1535;51.098;6.414;2023-10-19T05:03:30;13.70;99.90
3051;DHT22;1535;51.098;6.414;2023-10-19T05:05:58;13.70;99.90
3051;DHT22;1535;51.098;6.414;2023-10-19T05:08:25;13.60;99.90
3051;DHT22;1535;51.098;6.414;2023-10-19T05:10:54;13.50;99.90
3051;DHT22;1535;51.098;6.414;2023-10-19T05:13:24;13.50;99.90
3051;DHT22;1535;51.098;6.414;2023-10-19T05:15:52;13.40;99.90
3051;DHT22;1535;51.098;6.414;2023-10-19T05:18:19;13.20;99.90
3051;DHT22;1535;51.098;6.414;2023-10-19T05:20:46;13.20;99.90
3051;DHT22;1535;51.098;6.414;2023-10-19T05:23:13;13.20;99.90
3051;DHT22;1535;51.098;6.414;2023-10-19T05:25:40;13.20;99.90
3051;DHT22;1535;51.098;6.414;2023-10-19T05:28:06;13.20;99.90
3051;DHT22;1535;51.098;6.414;2023-10-19T05:30:36;13.10;99.90
3051;DHT22;1535;51.098;6.414;2023-10-19T05:33:03;13.10;99.90
3051;DHT22;1535;51.098;6.414;2023-10-19T05:35:31;13.20;99.90
3051;DHT22;1535;51.098;6.414;2023-10-19T05:38:01;13.10;99.90
3051;DHT22;1535;51.098;6.414;2023-10-19T05:40:28;13.10;99.90
3051;DHT22;1535;51.098;6.414;2023-10-19T05:42:56;13.10;99.90
3051;DHT22;1535;51.098;6.414;2023-10-19T05:45:23;13.10;99.90
3051;DHT22;1535;51.098;6.414;2023-10-19T05:47:53;13.20;99.90
3051;DHT22;1535;51.098;6.414;2023-10-19T05:50:20;13.20;99.90
3051;DHT22;1535;51.098;6.414;2023-10-19T05:52:47;13.20;99.90
3051;DHT22;1535;51.098;6.414;2023-10-19T05:55:14;13.20;99.90
3051;DHT22;1535;51.098;6.414;2023-10-19T05:57:41;13.20;99.90
3051;DHT22;1535;51.098;6.414;2023-10-19T06:00:10;13.30;99.90
3051;DHT22;1535;51.098;6.414;2023-10-19T06:02:42;13.20;99.90
3051;DHT22;1535;51.098;6.414;2023-10-19T06:05:12;13.20;99.90
3051;DHT22;1535;51.098;6.414;2023-10-19T06:07:41;13.20;99.90
3051;DHT22;1535;51.098;6.414;2023-10-19T06:10:11;13.20;99.90
3051;DHT22;1535;51.098;6.414;2023-10-19T06:12:41;13.20;99.90
3051;DHT22;1535;51.098;6.414;2023-10-19T06:15:09;13.20;99.90
3051;DHT22;1535;51.098;6.414;2023-10-19T06:17:36;13.30;99.90
3051;DHT22;1535;51.098;6.414;2023-10-19T06:20:04;13.30;99.90
3051;DHT22;1535;51.098;6.414;2023-10-19T06:22:35;13.30;99.90
3051;DHT22;1535;51.098;6.414;2023-10-19T06:25:02;13.30;99.90
3051;DHT22;1535;51.098;6.414;2023-10-19T06:27:32;13.30;99.90
3051;DHT22;1535;51.098;6.414;2023-10-19T06:29:59;13.30;99.90
3051;DHT22;1535;51.098;6.414;2023-10-19T06:32:26;13.40;99.90
3051;DHT22;1535;51.098;6.414;2023-10-19T06:34:53;13.40;99.90
3051;DHT22;1535;51.098;6.414;2023-10-19T06:37:20;13.50;99.90
3051;DHT22;1535;51.098;6.414;2023-10-19T06:39:49;13.50;99.90
3051;DHT22;1535;51.098;6.414;2023-10-19T06:42:17;13.50;99.90
3051;DHT22;1535;51.098;6.414;2023-10-19T06:44:44;13.50;99.90
3051;DHT22;1535;51.098;6.414;2023-10-19T06:47:11;13.50;99.90
3051;DHT22;1535;51.098;6.414;2023-10-19T06:49:39;13.50;99.90
3051;DHT22;1535;51.098;6.414;2023-10-19T06:52:06;13.50;99.90
3051;DHT22;1535;51.098;6.414;2023-10-19T06:54:37;13.50;99.90
3051;DHT22;1535;51.098;6.414;2023-10-19T06:57:05;13.60;99.90
3051;DHT22;1535;51.098;6.414;2023-10-19T06:59:33;13.60;99.90
3051;DHT22;1535;51.098;6.414;2023-10-19T07:02:00;13.60;99.90
3051;DHT22;1535;51.098;6.414;2023-10-19T07:04:28;13.60;99.90
3051;DHT22;1535;51.098;6.414;2023-10-19T07:06:55;13.60;99.90
3051;DHT22;1535;51.098;6.414;2023-10-19T07:09:23;13.60;99.90
3051;DHT22;1535;51.098;6.414;2023-10-19T07:11:50;13.70;99.90
3051;DHT22;1535;51.098;6.414;2023-10-19T07:14:20;13.80;99.90
3051;DHT22;1535;51.098;6.414;2023-10-19T07:16:50;13.80;99.90
3051;DHT22;1535;51.098;6.414;2023-10-19T07:19:18;13.90;99.90
3051;DHT22;1535;51.098;6.414;2023-10-19T07:21:45;14.00;99.90
3051;DHT22;1535;51.098;6.414;2023-10-19T07:24:19;14.00;99.90
3051;DHT22;1535;51.098;6.414;2023-10-19T07:26:49;14.00;99.90
3051;DHT22;1535;51.098;6.414;2023-10-19T07:29:31;14.00;99.90
3051;DHT22;1535;51.098;6.414;2023-10-19T07:31:59;14.10;99.90
3051;DHT22;1535;51.098;6.414;2023-10-19T07:34:25;14.00;99.90
3051;DHT22;1535;51.098;6.414;2023-10-19T07:36:55;14.10;99.90
3051;DHT22;1535;51.098;6.414;2023-10-19T07:39:24;14.20;99.90
3051;DHT22;1535;51.098;6.414;2023-10-19T07:41:52;14.30;99.90
3051;DHT22;1535;51.098;6.414;2023-10-19T07:44:19;14.40;99.90
3051;DHT22;1535;51.098;6.414;2023-10-19T07:46:47;14.40;99.90
3051;DHT22;1535;51.098;6.414;2023-10-19T07:49:14;14.60;99.90
3051;DHT22;1535;51.098;6.414;2023-10-19T07:51:45;14.90;99.90
3051;DHT22;1535;51.098;6.414;2023-10-19T07:54:12;15.20;99.90
3051;DHT22;1535;51.098;6.414;2023-10-19T07:56:39;15.30;99.90
3051;DHT22;1535;51.098;6.414;2023-10-19T07:59:06;15.50;99.90
3051;DHT22;1535;51.098;6.414;2023-10-19T08:01:33;15.70;99.90
3051;DHT22;1535;51.098;6.414;2023-10-19T08:04:03;16.00;99.90
3051;DHT22;1535;51.098;6.414;2023-10-19T08:06:31;16.10;99.90
3051;DHT22;1535;51.098;6.414;2023-10-19T08:08:58;16.20;99.90
3051;DHT22;1535;51.098;6.414;2023-10-19T08:11:25;16.20;99.90
3051;DHT22;1535;51.098;6.414;2023-10-19T08:13:52;16.30;99.90
3051;DHT22;1535;51.098;6.414;2023-10-19T08:16:20;16.40;99.90
3051;DHT22;1535;51.098;6.414;2023-10-19T08:18:48;16.60;99.90
3051;DHT22;1535;51.098;6.414;2023-10-19T08:21:19;16.70;99.90
3051;DHT22;1535;51.098;6.414;2023-10-19T08:23:46;16.70;99.90
3051;DHT22;1535;51.098;6.414;2023-10-19T08:26:14;16.90;99.90
3051;DHT22;1535;51.098;6.414;2023-10-19T08:28:41;17.00;99.90
3051;DHT22;1535;51.098;6.414;2023-10-19T08:31:09;17.20;99.90
3051;DHT22;1535;51.098;6.414;2023-10-19T08:33:36;17.20;99.90
3051;DHT22;1535;51.098;6.414;2023-10-19T08:36:04;17.20;99.90
3051;DHT22;1535;51.098;6.414;2023-10-19T08:38:33;17.20;99.90
3051;DHT22;1535;51.098;6.414;2023-10-19T08:41:00;17.10;99.90
3051;DHT22;1535;51.098;6.414;2023-10-19T08:43:28;16.90;99.90
3051;DHT22;1535;51.098;6.414;2023-10-19T08:45:54;16.90;99.90
3051;DHT22;1535;51.098;6.414;2023-10-19T08:48:22;16.80;99.90
3051;DHT22;1535;51.098;6.414;2023-10-19T08:50:49;16.80;99.90
3051;DHT22;1535;51.098;6.414;2023-10-19T08:53:17;16.70;99.90
3051;DHT22;1535;51.098;6.414;2023-10-19T08:55:46;16.60;99.90
3051;DHT22;1535;51.098;6.414;2023-10-19T08:58:15;16.60;99.90
3051;DHT22;1535;51.098;6.414;2023-10-19T09:00:44;16.60;99.90
3051;DHT22;1535;51.098;6.414;2023-10-19T09:03:13;16.60;99.90
3051;DHT22;1535;51.098;6.414;2023-10-19T09:05:42;16.70;99.90
3051;DHT22;1535;51.098;6.414;2023-10-19T09:08:14;16.80;99.90
3051;DHT22;1535;51.098;6.414;2023-10-19T09:10:43;16.80;99.90
3051;DHT22;1535;51.098;6.414;2023-10-19T09:13:13;16.90;99.90
3051;DHT22;1535;51.098;6.414;2023-10-19T09:15:44;17.10;99.90
3051;DHT22;1535;51.098;6.414;2023-10-19T09:18:15;17.10;99.90
3051;DHT22;1535;51.098;6.414;2023-10-19T09:20:43;17.20;99.90
3051;DHT22;1535;51.098;6.414;2023-10-19T09:23:19;17.30;99.90
3051;DHT22;1535;51.098;6.414;2023-10-19T09:25:48;17.30;99.90
3051;DHT22;1535;51.098;6.414;2023-10-19T09:28:16;17.30;99.90
3051;DHT22;1535;51.098;6.414;2023-10-19T09:30:44;17.50;99.90
3051;DHT22;1535;51.098;6.414;2023-10-19T09:33:13;17.70;99.90
3051;DHT22;1535;51.098;6.414;2023-10-19T09:35:44;17.80;99.90
3051;DHT22;1535;51.098;6.414;2023-10-19T09:38:13;17.90;99.90
3051;DHT22;1535;51.098;6.414;2023-10-19T09:40:41;18.10;99.90
3051;DHT22;1535;51.098;6.414;2023-10-19T09:43:12;18.20;99.90
3051;DHT22;1535;51.098;6.414;2023-10-19T09:45:46;18.40;99.90
3051;DHT22;1535;51.098;6.414;2023-10-19T09:48:16;18.60;99.90
3051;DHT22;1535;51.098;6.414;2023-10-19T09:50:53;18.80;99.90
3051;DHT22;1535;51.098;6.414;2023-10-19T09:53:23;18.80;99.90
3051;DHT22;1535;51.098;6.414;2023-10-19T09:55:53;18.90;99.90
3051;DHT22;1535;51.098;6.414;2023-10-19T09:58:24;18.90;99.90
3051;DHT22;1535;51.098;6.414;2023-10-19T10:00:56;18.90;99.90
3051;DHT22;1535;51.098;6.414;2023-10-19T10:03:43;19.10;99.90
3051;DHT22;1535;51.098;6.414;2023-10-19T10:06:10;19.20;99.90
3051;DHT22;1535;51.098;6.414;2023-10-19T10:08:40;19.30;99.90
3051;DHT22;1535;51.098;6.414;2023-10-19T10:11:16;19.50;99.90
3051;DHT22;1535;51.098;6.414;2023-10-19T10:13:44;19.60;99.90
3051;DHT22;1535;51.098;6.414;2023-10-19T10:16:14;19.50;99.90
3051;DHT22;1535;51.098;6.414;2023-10-19T10:18:41;19.80;99.90
3051;DHT22;1535;51.098;6.414;2023-10-19T10:21:11;20.20;99.90
3051;DHT22;1535;51.098;6.414;2023-10-19T10:23:42;20.50;99.90
3051;DHT22;1535;51.098;6.414;2023-10-19T10:26:10;20.50;99.90
3051;DHT22;1535;51.098;6.414;2023-10-19T10:28:38;21.40;99.90
3051;DHT22;1535;51.098;6.414;2023-10-19T10:31:14;22.40;99.90
3051;DHT22;1535;51.098;6.414;2023-10-19T10:33:43;23.40;99.90
3051;DHT22;1535;51.098;6.414;2023-10-19T10:36:12;24.00;99.90
3051;DHT22;1535;51.098;6.414;2023-10-19T10:38:39;24.10;99.90
3051;DHT22;1535;51.098;6.414;2023-10-19T10:41:06;23.90;99.90
3051;DHT22;1535;51.098;6.414;2023-10-19T10:43:48;23.50;99.90
3051;DHT22;1535;51.098;6.414;2023-10-19T10:46:18;22.50;99.90
3051;DHT22;1535;51.098;6.414;2023-10-19T10:48:45;22.10;99.90
3051;DHT22;1535;51.098;6.414;2023-10-19T10:51:18;22.20;99.90
3051;DHT22;1535;51.098;6.414;2023-10-19T10:53:47;22.10;99.90
3051;DHT22;1535;51.098;6.414;2023-10-19T10:56:14;22.00;99.90
3051;DHT22;1535;51.098;6.414;2023-10-19T10:58:41;21.90;99.90
3051;DHT22;1535;51.098;6.414;2023-10-19T11:01:08;21.80;99.90
3051;DHT22;1535;51.098;6.414;2023-10-19T11:03:38;21.70;99.90
3051;DHT22;1535;51.098;6.414;2023-10-19T11:06:05;21.40;99.90
3051;DHT22;1535;51.098;6.414;2023-10-19T11:08:34;21.40;99.90
3051;DHT22;1535;51.098;6.414;2023-10-19T11:11:06;21.40;99.90
3051;DHT22;1535;51.098;6.414;2023-10-19T11:13:33;21.20;99.90
3051;DHT22;1535;51.098;6.414;2023-10-19T11:16:02;21.20;99.90
3051;DHT22;1535;51.098;6.414;2023-10-19T11:18:32;21.40;99.90
3051;DHT22;1535;51.098;6.414;2023-10-19T11:21:03;21.40;99.90
3051;DHT22;1535;51.098;6.414;2023-10-19T11:23:40;21.50;99.90
3051;DHT22;1535;51.098;6.414;2023-10-19T11:26:08;21.80;99.90
3051;DHT22;1535;51.098;6.414;2023-10-19T11:28:35;21.90;99.90
3051;DHT22;1535;51.098;6.414;2023-10-19T11:31:12;21.90;99.90
3051;DHT22;1535;51.098;6.414;2023-10-19T11:33:39;22.00;99.90
3051;DHT22;1535;51.098;6.414;2023-10-19T11:36:08;22.00;99.90
3051;DHT22;1535;51.098;6.414;2023-10-19T11:38:39;22.00;99.90
3051;DHT22;1535;51.098;6.414;2023-10-19T11:41:05;21.90;99.90
3051;DHT22;1535;51.098;6.414;2023-10-19T11:43:34;21.80;99.90
3051;DHT22;1535;51.098;6.414;2023-10-19T11:46:02;21.70;99.90
3051;DHT22;1535;51.098;6.414;2023-10-19T11:48:31;21.60;99.90
3051;DHT22;1535;51.098;6.414;2023-10-19T11:50:59;21.60;99.90
3051;DHT22;1535;51.098;6.414;2023-10-19T11:53:28;21.50;99.90
3051;DHT22;1535;51.098;6.414;2023-10-19T11:55:59;21.60;99.90
3051;DHT22;1535;51.098;6.414;2023-10-19T11:58:26;21.70;99.90
3051;DHT22;1535;51.098;6.414;2023-10-19T12:00:54;21.50;99.90
3051;DHT22;1535;51.098;6.414;2023-10-19T12:03:21;21.40;99.90
3051;DHT22;1535;51.098;6.414;2023-10-19T12:05:48;21.40;99.90
3051;DHT22;1535;51.098;6.414;2023-10-19T12:08:18;21.30;99.90
3051;DHT22;1535;51.098;6.414;2023-10-19T12:10:47;21.10;99.90
3051;DHT22;1535;51.098;6.414;2023-10-19T12:13:14;21.00;99.90
3051;DHT22;1535;51.098;6.414;2023-10-19T12:15:41;20.90;99.90
3051;DHT22;1535;51.098;6.414;2023-10-19T12:18:18;20.60;99.90
3051;DHT22;1535;51.098;6.414;2023-10-19T12:20:46;20.50;99.90
3051;DHT22;1535;51.098;6.414;2023-10-19T12:23:13;20.40;99.90
3051;DHT22;1535;51.098;6.414;2023-10-19T12:25:40;20.40;99.90
3051;DHT22;1535;51.098;6.414;2023-10-19T12:28:09;20.40;99.90
3051;DHT22;1535;51.098;6.414;2023-10-19T12:30:41;20.20;99.90
3051;DHT22;1535;51.098;6.414;2023-10-19T12:33:08;20.10;99.90
3051;DHT22;1535;51.098;6.414;2023-10-19T12:35:38;20.00;99.90
3051;DHT22;1535;51.098;6.414;2023-10-19T12:38:15;19.90;99.90
3051;DHT22;1535;51.098;6.414;2023-10-19T12:40:43;20.00;99.90
3051;DHT22;1535;51.098;6.414;2023-10-19T12:43:13;20.00;99.90
3051;DHT22;1535;51.098;6.414;2023-10-19T12:45:40;19.80;99.90
3051;DHT22;1535;51.098;6.414;2023-10-19T12:48:09;19.60;99.90
3051;DHT22;1535;51.098;6.414;2023-10-19T12:50:37;19.60;99.90
3051;DHT22;1535;51.098;6.414;2023-10-19T12:53:04;19.40;99.90
3051;DHT22;1535;51.098;6.414;2023-10-19T12:55:33;19.40;99.90
3051;DHT22;1535;51.098;6.414;2023-10-19T12:58:00;19.30;99.90
3051;DHT22;1535;51.098;6.414;2023-10-19T13:00:35;19.20;99.90
3051;DHT22;1535;51.098;6.414;2023-10-19T13:03:09;19.20;99.90
3051;DHT22;1535;51.098;6.414;2023-10-19T13:05:39;19.10;99.90
3051;DHT22;1535;51.098;6.414;2023-10-19T13:08:10;19.20;99.90
3051;DHT22;1535;51.098;6.414;2023-10-19T13:10:40;19.20;99.90
3051;DHT22;1535;51.098;6.414;2023-10-19T13:13:09;19.10;99.90
3051;DHT22;1535;51.098;6.414;2023-10-19T13:15:40;19.00;99.90
3051;DHT22;1535;51.098;6.414;2023-10-19T13:18:09;18.80;99.90
3051;DHT22;1535;51.098;6.414;2023-10-19T13:20:37;18.50;99.90
3051;DHT22;1535;51.098;6.414;2023-10-19T13:23:06;18.30;99.90
3051;DHT22;1535;51.098;6.414;2023-10-19T13:25:37;18.20;99.90
3051;DHT22;1535;51.098;6.414;2023-10-19T13:28:12;18.00;99.90
3051;DHT22;1535;51.098;6.414;2023-10-19T13:30:42;17.90;99.90
3051;DHT22;1535;51.098;6.414;2023-10-19T13:33:10;17.70;99.90
3051;DHT22;1535;51.098;6.414;2023-10-19T13:35:40;17.60;99.90
3051;DHT22;1535;51.098;6.414;2023-10-19T13:38:07;17.60;99.90
3051;DHT22;1535;51.098;6.414;2023-10-19T13:40:35;17.60;99.90
3051;DHT22;1535;51.098;6.414;2023-10-19T13:43:04;17.50;99.90
3051;DHT22;1535;51.098;6.414;2023-10-19T13:45:32;17.50;99.90
3051;DHT22;1535;51.098;6.414;2023-10-19T13:48:01;17.30;99.90
3051;DHT22;1535;51.098;6.414;2023-10-19T13:50:28;17.30;99.90
3051;DHT22;1535;51.098;6.414;2023-10-19T13:52:55;17.20;99.90
3051;DHT22;1535;51.098;6.414;2023-10-19T13:55:23;17.10;99.90
3051;DHT22;1535;51.098;6.414;2023-10-19T13:57:50;17.10;99.90
3051;DHT22;1535;51.098;6.414;2023-10-19T14:00:18;17.10;99.90
3051;DHT22;1535;51.098;6.414;2023-10-19T14:02:50;17.10;99.90
3051;DHT22;1535;51.098;6.414;2023-10-19T14:05:18;17.10;99.90
3051;DHT22;1535;51.098;6.414;2023-10-19T14:07:46;17.10;99.90
3051;DHT22;1535;51.098;6.414;2023-10-19T14:10:14;17.00;99.90
3051;DHT22;1535;51.098;6.414;2023-10-19T14:12:42;17.00;99.90
3051;DHT22;1535;51.098;6.414;2023-10-19T14:15:14;16.90;99.90
3051;DHT22;1535;51.098;6.414;2023-10-19T14:17:42;17.00;99.90
3051;DHT22;1535;51.098;6.414;2023-10-19T14:20:09;16.90;99.90
3051;DHT22;1535;51.098;6.414;2023-10-19T14:22:44;17.00;99.90
3051;DHT22;1535;51.098;6.414;2023-10-19T14:25:13;17.10;99.90
3051;DHT22;1535;51.098;6.414;2023-10-19T14:27:41;17.20;99.90
3051;DHT22;1535;51.098;6.414;2023-10-19T14:30:10;17.30;99.90
3051;DHT22;1535;51.098;6.414;2023-10-19T14:32:39;17.30;99.90
3051;DHT22;1535;51.098;6.414;2023-10-19T14:35:07;17.50;99.90
3051;DHT22;1535;51.098;6.414;2023-10-19T14:37:37;17.60;99.90
3051;DHT22;1535;51.098;6.414;2023-10-19T14:40:10;17.50;99.90
3051;DHT22;1535;51.098;6.414;2023-10-19T14:42:38;17.40;99.90
3051;DHT22;1535;51.098;6.414;2023-10-19T14:45:09;17.40;99.90
3051;DHT22;1535;51.098;6.414;2023-10-19T14:47:37;17.60;99.90
3051;DHT22;1535;51.098;6.414;2023-10-19T14:50:07;17.70;99.90
3051;DHT22;1535;51.098;6.414;2023-10-19T14:52:37;17.70;99.90
3051;DHT22;1535;51.098;6.414;2023-10-19T14:55:04;17.80;99.90
3051;DHT22;1535;51.098;6.414;2023-10-19T14:57:33;17.90;99.90
3051;DHT22;1535;51.098;6.414;2023-10-19T15:00:01;18.10;99.90
3051;DHT22;1535;51.098;6.414;2023-10-19T15:02:41;18.20;99.90
3051;DHT22;1535;51.098;6.414;2023-10-19T15:05:09;18.40;99.90
3051;DHT22;1535;51.098;6.414;2023-10-19T15:07:40;19.00;99.90
3051;DHT22;1535;51.098;6.414;2023-10-19T15:10:08;19.20;99.90
3051;DHT22;1535;51.098;6.414;2023-10-19T15:12:39;19.40;99.90
3051;DHT22;1535;51.098;6.414;2023-10-19T15:15:08;19.40;99.90
3051;DHT22;1535;51.098;6.414;2023-10-19T15:17:37;19.20;99.90
3051;DHT22;1535;51.098;6.414;2023-10-19T15:20:05;19.40;99.90
3051;DHT22;1535;51.098;6.414;2023-10-19T15:22:34;19.50;99.90
3051;DHT22;1535;51.098;6.414;2023-10-19T15:25:01;19.30;99.90
3051;DHT22;1535;51.098;6.414;2023-10-19T15:27:30;19.10;99.90
3051;DHT22;1535;51.098;6.414;2023-10-19T15:29:58;18.90;99.90
3051;DHT22;1535;51.098;6.414;2023-10-19T15:32:26;18.90;99.90
3051;DHT22;1535;51.098;6.414;2023-10-19T15:34:56;19.20;99.90
3051;DHT22;1535;51.098;6.414;2023-10-19T15:37:23;19.60;99.90
3051;DHT22;1535;51.098;6.414;2023-10-19T15:39:50;19.80;99.90
3051;DHT22;1535;51.098;6.414;2023-10-19T15:42:18;20.00;99.90
3051;DHT22;1535;51.098;6.414;2023-10-19T15:44:47;20.20;99.90
3051;DHT22;1535;51.098;6.414;2023-10-19T15:47:16;20.40;99.90
3051;DHT22;1535;51.098;6.414;2023-10-19T15:49:49;20.20;99.90
3051;DHT22;1535;51.098;6.414;2023-10-19T15:52:19;20.10;99.90
3051;DHT22;1535;51.098;6.414;2023-10-19T15:54:47;20.10;99.90
3051;DHT22;1535;51.098;6.414;2023-10-19T15:57:14;20.10;99.90
3051;DHT22;1535;51.098;6.414;2023-10-19T15:59:41;20.10;99.90
3051;DHT22;1535;51.098;6.414;2023-10-19T16:02:09;19.90;99.90
3051;DHT22;1535;51.098;6.414;2023-10-19T16:04:39;19.50;99.90
3051;DHT22;1535;51.098;6.414;2023-10-19T16:07:06;19.10;99.90
3051;DHT22;1535;51.098;6.414;2023-10-19T16:09:33;18.70;99.90
3051;DHT22;1535;51.098;6.414;2023-10-19T16:12:00;18.30;99.90
3051;DHT22;1535;51.098;6.414;2023-10-19T16:14:27;18.20;99.90